createdAt,value
2018-11-10T00:00:39.937Z,18.50
2018-11-10T00:01:39.965Z,18.10
2018-11-10T00:02:39.992Z,20.50
2018-11-10T00:03:40.019Z,25.30
2018-11-10T00:04:40.047Z,18.90
2018-11-10T00:05:40.075Z,23.00
2018-11-10T00:06:40.105Z,18.90
2018-11-10T00:07:40.169Z,15.80
2018-11-10T00:08:40.161Z,19.50
2018-11-10T00:09:40.187Z,17.90
2018-11-10T00:10:40.212Z,16.40
2018-11-10T00:11:40.241Z,18.30
2018-11-10T00:12:40.267Z,20.00
2018-11-10T00:13:40.295Z,24.00
2018-11-10T00:14:40.321Z,20.40
2018-11-10T00:15:40.349Z,20.20
2018-11-10T00:16:40.413Z,21.60
2018-11-10T00:17:40.407Z,23.30
2018-11-10T00:18:40.433Z,18.60
2018-11-10T00:19:40.461Z,18.30
2018-11-10T00:20:40.487Z,19.70
2018-11-10T00:21:40.515Z,18.10
2018-11-10T00:22:40.542Z,17.50
2018-11-10T00:23:40.570Z,17.10
2018-11-10T00:24:40.597Z,19.60
2018-11-10T00:25:40.627Z,18.40
2018-11-10T00:26:40.652Z,18.50
2018-11-10T00:27:40.680Z,22.90
2018-11-10T00:28:40.708Z,24.70
2018-11-10T00:29:40.738Z,18.90
2018-11-10T00:30:40.762Z,20.20
2018-11-10T00:31:40.791Z,23.40
2018-11-10T00:32:40.819Z,19.60
2018-11-10T00:33:40.851Z,16.60
2018-11-10T00:34:40.973Z,20.60
2018-11-10T00:35:40.902Z,16.30
2018-11-10T00:36:40.929Z,17.40
2018-11-10T00:37:40.956Z,22.10
2018-11-10T00:38:40.983Z,23.30
2018-11-10T00:39:41.015Z,17.80
2018-11-10T00:40:41.039Z,16.20
2018-11-10T00:41:41.067Z,17.30
2018-11-10T00:42:41.147Z,16.30
2018-11-10T00:43:41.122Z,19.60
2018-11-10T00:44:41.149Z,15.10
2018-11-10T00:45:41.180Z,26.30
2018-11-10T00:46:41.205Z,14.70
2018-11-10T00:47:41.236Z,16.40
2018-11-10T00:48:41.259Z,20.50
2018-11-10T00:49:41.286Z,13.30
2018-11-10T00:50:41.317Z,13.90
2018-11-10T00:51:41.342Z,13.90
2018-11-10T00:52:41.376Z,12.40
2018-11-10T00:53:41.397Z,12.50
2018-11-10T00:54:41.449Z,17.20
2018-11-10T00:55:41.451Z,22.60
2018-11-10T00:56:41.478Z,20.20
2018-11-10T00:57:41.506Z,24.10
2018-11-10T00:58:41.533Z,25.50
2018-11-10T00:59:41.559Z,21.70
2018-11-10T01:00:41.589Z,23.10
2018-11-10T01:01:41.615Z,22.20
2018-11-10T01:02:41.641Z,18.40
2018-11-10T01:03:41.668Z,16.70
2018-11-10T01:04:41.697Z,18.60
2018-11-10T01:05:41.724Z,17.80
2018-11-10T01:06:41.750Z,16.70
2018-11-10T01:07:41.787Z,18.90
2018-11-10T01:08:41.808Z,20.80
2018-11-10T01:09:41.834Z,20.30
2018-11-10T01:10:41.910Z,18.40
2018-11-10T01:11:41.888Z,17.90
2018-11-10T01:12:41.916Z,17.60
2018-11-10T01:13:41.943Z,16.90
2018-11-10T01:14:41.970Z,20.50
2018-11-10T01:15:41.999Z,22.60
2018-11-10T01:16:42.026Z,15.90
2018-11-10T01:17:42.054Z,20.70
2018-11-10T01:18:42.080Z,18.50
2018-11-10T01:19:42.109Z,22.80
2018-11-10T01:20:42.136Z,22.40
2018-11-10T01:21:42.166Z,18.00
2018-11-10T01:22:42.194Z,15.30
2018-11-10T01:23:42.219Z,14.30
2018-11-10T01:24:42.246Z,14.00
2018-11-10T01:25:42.273Z,17.70
2018-11-10T01:26:42.301Z,17.00
2018-11-10T01:27:42.390Z,14.10
2018-11-10T01:28:42.356Z,14.60
2018-11-10T01:29:42.383Z,17.80
2018-11-10T01:30:42.411Z,17.30
2018-11-10T01:31:42.437Z,18.70
2018-11-10T01:32:42.467Z,14.70
2018-11-10T01:33:42.494Z,14.90
2018-11-10T01:34:42.521Z,14.00
2018-11-10T01:35:42.551Z,16.20
2018-11-10T01:36:42.575Z,17.40
2018-11-10T01:37:42.603Z,17.00
2018-11-10T01:38:42.630Z,22.10
2018-11-10T01:39:42.657Z,16.60
2018-11-10T01:40:42.685Z,16.70
2018-11-10T01:41:42.712Z,16.20
2018-11-10T01:42:42.740Z,13.90
2018-11-10T01:43:42.767Z,15.80
2018-11-10T01:44:42.795Z,17.80
2018-11-10T01:45:42.823Z,17.90
2018-11-10T01:46:42.852Z,22.10
2018-11-10T01:47:42.877Z,17.80
2018-11-10T01:48:42.907Z,19.70
2018-11-10T01:49:42.933Z,19.00
2018-11-10T01:50:42.959Z,16.70
2018-11-10T01:51:42.987Z,16.30
2018-11-10T01:52:43.017Z,18.60
2018-11-10T01:53:43.044Z,16.80
2018-11-10T01:54:43.070Z,15.20
2018-11-10T01:55:43.098Z,13.50
2018-11-10T01:56:43.125Z,16.80
2018-11-10T01:57:43.162Z,17.00
2018-11-10T01:58:43.187Z,14.70
2018-11-10T01:59:43.209Z,19.10
2018-11-10T02:00:43.236Z,15.50
2018-11-10T02:01:43.265Z,13.40
2018-11-10T02:02:43.290Z,15.60
2018-11-10T02:03:43.319Z,15.50
2018-11-10T02:04:43.351Z,14.00
2018-11-10T02:05:43.374Z,15.40
2018-11-10T02:06:43.489Z,14.20
2018-11-10T02:07:43.435Z,15.20
2018-11-10T02:08:43.459Z,17.30
2018-11-10T02:09:43.486Z,13.70
2018-11-10T02:10:43.514Z,17.20
2018-11-10T02:11:43.541Z,13.20
2018-11-10T02:12:43.569Z,13.20
2018-11-10T02:13:43.596Z,14.20
2018-11-10T02:14:43.624Z,14.30
2018-11-10T02:15:43.653Z,17.60
2018-11-10T02:16:43.680Z,16.60
2018-11-10T02:17:43.708Z,16.30
2018-11-10T02:18:43.735Z,12.90
2018-11-10T02:19:43.764Z,18.20
2018-11-10T02:20:43.802Z,14.80
2018-11-10T02:21:43.820Z,14.40
2018-11-10T02:22:43.848Z,14.70
2018-11-10T02:23:43.877Z,15.80
2018-11-10T02:24:43.904Z,16.10
2018-11-10T02:25:43.931Z,17.40
2018-11-10T02:26:43.957Z,14.30
2018-11-10T02:27:43.987Z,15.20
2018-11-10T02:28:44.014Z,13.90
2018-11-10T02:29:44.043Z,14.30
2018-11-10T02:30:44.072Z,15.00
2018-11-10T02:31:44.097Z,18.70
2018-11-10T02:32:44.130Z,16.50
2018-11-10T02:33:44.154Z,15.60
2018-11-10T02:34:44.184Z,17.00
2018-11-10T02:35:44.209Z,17.30
2018-11-10T02:36:44.236Z,14.30
2018-11-10T02:37:44.268Z,14.40
2018-11-10T02:38:44.336Z,16.30
2018-11-10T02:39:44.321Z,14.30
2018-11-10T02:40:44.352Z,16.60
2018-11-10T02:41:44.378Z,18.60
2018-11-10T02:42:44.416Z,15.90
2018-11-10T02:43:44.433Z,13.50
2018-11-10T02:44:44.464Z,15.40
2018-11-10T02:45:44.489Z,19.80
2018-11-10T02:46:44.516Z,14.70
2018-11-10T02:47:44.544Z,19.40
2018-11-10T02:48:44.571Z,15.30
2018-11-10T02:49:44.616Z,18.00
2018-11-10T02:50:44.628Z,14.60
2018-11-10T02:51:44.657Z,20.40
2018-11-10T02:52:44.747Z,15.10
2018-11-10T02:53:44.712Z,17.80
2018-11-10T02:54:44.739Z,21.80
2018-11-10T02:55:44.767Z,18.10
2018-11-10T02:56:44.795Z,18.40
2018-11-10T02:57:44.824Z,16.30
2018-11-10T02:58:44.850Z,17.90
2018-11-10T02:59:44.879Z,22.70
2018-11-10T03:00:44.907Z,16.90
2018-11-10T03:01:44.936Z,16.70
2018-11-10T03:02:44.962Z,19.80
2018-11-10T03:03:44.994Z,19.40
2018-11-10T03:04:45.020Z,21.60
2018-11-10T03:05:45.047Z,14.20
2018-11-10T03:06:45.074Z,19.60
2018-11-10T03:07:45.102Z,20.80
2018-11-10T03:08:45.130Z,17.30
2018-11-10T03:09:45.158Z,14.10
2018-11-10T03:10:45.238Z,23.70
2018-11-10T03:11:45.213Z,18.00
2018-11-10T03:12:45.245Z,18.30
2018-11-10T03:13:45.269Z,14.80
2018-11-10T03:14:45.297Z,17.80
2018-11-10T03:15:45.325Z,15.30
2018-11-10T03:16:45.355Z,14.40
2018-11-10T03:17:45.382Z,17.50
2018-11-10T03:18:45.410Z,18.60
2018-11-10T03:19:45.437Z,14.30
2018-11-10T03:20:45.465Z,18.10
2018-11-10T03:21:45.493Z,15.30
2018-11-10T03:22:45.521Z,13.90
2018-11-10T03:23:45.555Z,16.90
2018-11-10T03:24:45.578Z,19.10
2018-11-10T03:25:45.605Z,18.30
2018-11-10T03:26:45.633Z,16.60
2018-11-10T03:27:45.660Z,16.30
2018-11-10T03:28:45.690Z,15.20
2018-11-10T03:29:45.717Z,15.00
2018-11-10T03:30:45.744Z,14.70
2018-11-10T03:31:45.774Z,14.60
2018-11-10T03:32:45.802Z,16.40
2018-11-10T03:33:45.830Z,11.80
2018-11-10T03:34:45.857Z,14.60
2018-11-10T03:35:45.885Z,13.00
2018-11-10T03:36:45.913Z,14.10
2018-11-10T03:37:45.943Z,12.60
2018-11-10T03:38:45.968Z,11.40
2018-11-10T03:39:45.999Z,13.20
2018-11-10T03:40:46.026Z,13.30
2018-11-10T03:41:46.056Z,11.40
2018-11-10T03:42:46.082Z,11.60
2018-11-10T03:43:46.110Z,13.60
2018-11-10T03:44:46.138Z,18.00
2018-11-10T03:45:46.167Z,13.60
2018-11-10T03:46:46.194Z,14.60
2018-11-10T03:47:46.223Z,11.10
2018-11-10T03:48:46.325Z,16.80
2018-11-10T03:49:46.281Z,10.40
2018-11-10T03:50:46.307Z,12.70
2018-11-10T03:51:46.340Z,11.00
2018-11-10T03:52:46.366Z,12.00
2018-11-10T03:53:46.392Z,9.90
2018-11-10T03:54:46.421Z,12.20
2018-11-10T03:55:46.448Z,13.70
2018-11-10T03:56:46.482Z,14.20
2018-11-10T03:57:46.566Z,16.90
2018-11-10T03:58:46.534Z,11.40
2018-11-10T03:59:46.561Z,9.60
2018-11-10T04:00:46.590Z,11.30
2018-11-10T04:01:46.619Z,10.60
2018-11-10T04:02:46.648Z,11.40
2018-11-10T04:03:46.675Z,10.10
2018-11-10T04:04:46.705Z,9.60
2018-11-10T04:05:46.733Z,15.60
2018-11-10T04:06:46.760Z,10.80
2018-11-10T04:07:46.789Z,10.50
2018-11-10T04:08:46.816Z,11.00
2018-11-10T04:09:46.853Z,13.80
2018-11-10T04:10:46.874Z,11.60
2018-11-10T04:11:46.902Z,11.20
2018-11-10T04:12:46.930Z,14.20
2018-11-10T04:13:46.960Z,13.10
2018-11-10T04:14:46.991Z,15.10
2018-11-10T04:15:47.014Z,13.50
2018-11-10T04:16:47.044Z,13.60
2018-11-10T04:17:47.073Z,10.30
2018-11-10T04:18:47.100Z,15.00
2018-11-10T04:19:47.128Z,12.50
2018-11-10T04:20:47.159Z,13.20
2018-11-10T04:21:47.185Z,11.00
2018-11-10T04:22:47.213Z,14.70
2018-11-10T04:23:47.243Z,11.80
2018-11-10T04:24:47.270Z,14.00
2018-11-10T04:25:47.300Z,14.40
2018-11-10T04:26:47.327Z,13.40
2018-11-10T04:27:47.355Z,12.60
2018-11-10T04:28:47.384Z,13.90
2018-11-10T04:29:47.413Z,17.00
2018-11-10T04:30:47.440Z,14.40
2018-11-10T04:31:47.470Z,17.70
2018-11-10T04:32:47.499Z,13.80
2018-11-10T04:33:47.526Z,9.90
2018-11-10T04:34:47.554Z,15.20
2018-11-10T04:35:47.583Z,17.20
2018-11-10T04:36:47.613Z,14.50
2018-11-10T04:37:47.640Z,11.70
2018-11-10T04:38:47.668Z,12.50
2018-11-10T04:39:47.698Z,12.90
2018-11-10T04:40:47.727Z,12.90
2018-11-10T04:41:47.755Z,15.80
2018-11-10T04:42:47.792Z,16.00
2018-11-10T04:43:47.813Z,12.70
2018-11-10T04:44:47.841Z,17.00
2018-11-10T04:45:47.869Z,13.80
2018-11-10T04:46:47.897Z,11.50
2018-11-10T04:47:47.926Z,16.30
2018-11-10T04:48:47.986Z,15.40
2018-11-10T04:49:48.041Z,11.10
2018-11-10T04:50:48.014Z,11.60
2018-11-10T04:51:48.040Z,9.90
2018-11-10T04:52:48.070Z,21.30
2018-11-10T04:53:48.098Z,18.40
2018-11-10T04:54:48.127Z,12.80
2018-11-10T04:55:48.158Z,15.10
2018-11-10T04:56:48.184Z,10.70
2018-11-10T04:57:48.214Z,11.00
2018-11-10T04:58:48.241Z,14.90
2018-11-10T04:59:48.270Z,14.00
2018-11-10T05:00:48.298Z,12.50
2018-11-10T05:01:48.328Z,14.10
2018-11-10T05:02:48.356Z,10.80
2018-11-10T05:03:48.384Z,14.10
2018-11-10T05:04:48.413Z,12.30
2018-11-10T05:05:48.444Z,11.40
2018-11-10T05:06:48.471Z,13.10
2018-11-10T05:07:48.501Z,12.90
2018-11-10T05:08:48.528Z,12.50
2018-11-10T05:09:48.558Z,13.40
2018-11-10T05:10:48.591Z,13.90
2018-11-10T05:11:48.614Z,13.50
2018-11-10T05:12:48.643Z,14.80
2018-11-10T05:13:48.673Z,15.50
2018-11-10T05:14:48.701Z,12.40
2018-11-10T05:15:48.729Z,12.50
2018-11-10T05:16:48.758Z,11.30
2018-11-10T05:17:48.788Z,11.30
2018-11-10T05:18:48.817Z,14.10
2018-11-10T05:19:48.844Z,14.90
2018-11-10T05:20:48.873Z,13.20
2018-11-10T05:21:48.902Z,11.30
2018-11-10T05:22:48.930Z,11.40
2018-11-10T05:23:48.961Z,11.00
2018-11-10T05:24:48.989Z,10.60
2018-11-10T05:25:49.016Z,11.70
2018-11-10T05:26:49.044Z,16.60
2018-11-10T05:27:49.074Z,14.40
2018-11-10T05:28:49.103Z,14.60
2018-11-10T05:29:49.131Z,10.50
2018-11-10T05:30:49.160Z,13.20
2018-11-10T05:31:49.189Z,14.80
2018-11-10T05:32:49.216Z,10.60
2018-11-10T05:33:49.246Z,11.80
2018-11-10T05:34:49.274Z,11.60
2018-11-10T05:35:49.301Z,14.60
2018-11-10T05:36:49.331Z,12.40
2018-11-10T05:37:49.359Z,12.20
2018-11-10T05:38:49.389Z,17.80
2018-11-10T05:39:49.416Z,17.60
2018-11-10T05:40:49.446Z,11.50
2018-11-10T05:41:49.474Z,11.60
2018-11-10T05:42:49.501Z,15.10
2018-11-10T05:43:49.530Z,13.80
2018-11-10T05:44:49.560Z,18.00
2018-11-10T05:45:49.587Z,13.00
2018-11-10T05:46:49.618Z,15.10
2018-11-10T05:47:49.644Z,14.70
2018-11-10T05:48:49.673Z,10.10
2018-11-10T05:49:49.700Z,13.50
2018-11-10T05:50:49.728Z,13.70
2018-11-10T05:51:49.757Z,13.10
2018-11-10T05:52:49.786Z,12.60
2018-11-10T05:53:49.816Z,11.30
2018-11-10T05:54:49.843Z,13.20
2018-11-10T05:55:49.871Z,11.20
2018-11-10T05:56:49.900Z,13.40
2018-11-10T05:57:49.928Z,15.90
2018-11-10T05:58:49.958Z,18.00
2018-11-10T05:59:49.987Z,12.50
2018-11-10T06:00:50.059Z,19.00
2018-11-10T06:01:50.043Z,12.80
2018-11-10T06:02:50.077Z,10.70
2018-11-10T06:03:50.099Z,12.00
2018-11-10T06:04:50.127Z,13.20
2018-11-10T06:05:50.159Z,13.60
2018-11-10T06:06:50.185Z,10.60
2018-11-10T06:07:50.212Z,13.60
2018-11-10T06:08:50.243Z,11.60
2018-11-10T06:09:50.391Z,10.40
2018-11-10T06:10:50.299Z,11.20
2018-11-10T06:11:50.328Z,17.10
2018-11-10T06:12:50.421Z,13.50
2018-11-10T06:13:50.384Z,13.00
2018-11-10T06:14:50.413Z,9.00
2018-11-10T06:15:50.443Z,9.90
2018-11-10T06:16:50.470Z,10.40
2018-11-10T06:17:50.499Z,9.30
2018-11-10T06:18:50.615Z,10.10
2018-11-10T06:19:50.556Z,8.50
2018-11-10T06:20:50.585Z,8.10
2018-11-10T06:21:50.620Z,8.40
2018-11-10T06:22:50.643Z,9.70
2018-11-10T06:23:50.672Z,8.60
2018-11-10T06:24:50.700Z,13.00
2018-11-10T06:25:50.733Z,8.20
2018-11-10T06:26:50.757Z,12.10
2018-11-10T06:27:50.785Z,8.90
2018-11-10T06:28:50.816Z,9.30
2018-11-10T06:29:50.845Z,11.70
2018-11-10T06:30:50.872Z,9.50
2018-11-10T06:31:50.902Z,13.40
2018-11-10T06:32:50.936Z,9.70
2018-11-10T06:33:50.960Z,12.40
2018-11-10T06:34:50.989Z,10.50
2018-11-10T06:35:51.017Z,9.60
2018-11-10T06:36:51.047Z,13.30
2018-11-10T06:37:51.075Z,9.80
2018-11-10T06:38:51.103Z,8.60
2018-11-10T06:39:51.133Z,11.80
2018-11-10T06:40:51.163Z,14.00
2018-11-10T06:41:51.191Z,9.10
2018-11-10T06:42:51.220Z,8.90
2018-11-10T06:43:51.249Z,11.70
2018-11-10T06:44:51.277Z,9.20
2018-11-10T06:45:51.308Z,8.70
2018-11-10T06:46:51.338Z,8.00
2018-11-10T06:47:51.365Z,7.40
2018-11-10T06:48:51.395Z,9.40
2018-11-10T06:49:51.424Z,8.30
2018-11-10T06:50:51.451Z,10.00
2018-11-10T06:51:51.480Z,8.60
2018-11-10T06:52:51.567Z,8.50
2018-11-10T06:53:51.538Z,9.10
2018-11-10T06:54:51.569Z,10.20
2018-11-10T06:55:51.597Z,8.60
2018-11-10T06:56:51.624Z,8.60
2018-11-10T06:57:51.653Z,10.80
2018-11-10T06:58:51.683Z,9.50
2018-11-10T06:59:51.712Z,11.90
2018-11-10T07:00:51.740Z,9.70
2018-11-10T07:01:51.771Z,9.40
2018-11-10T07:02:51.798Z,9.00
2018-11-10T07:03:51.829Z,8.30
2018-11-10T07:04:51.855Z,8.70
2018-11-10T07:05:51.887Z,8.50
2018-11-10T07:06:51.912Z,8.60
2018-11-10T07:07:51.942Z,9.00
2018-11-10T07:08:51.970Z,11.00
2018-11-10T07:09:52.003Z,10.00
2018-11-10T07:10:52.028Z,10.70
2018-11-10T07:11:52.058Z,9.90
2018-11-10T07:12:52.086Z,9.80
2018-11-10T07:13:52.113Z,11.00
2018-11-10T07:14:52.141Z,12.80
2018-11-10T07:15:52.225Z,8.60
2018-11-10T07:16:52.200Z,11.10
2018-11-10T07:17:52.234Z,11.70
2018-11-10T07:18:52.258Z,8.20
2018-11-10T07:19:52.287Z,7.80
2018-11-10T07:20:52.315Z,11.50
2018-11-10T07:21:52.345Z,8.30
2018-11-10T07:22:52.372Z,8.60
2018-11-10T07:23:52.402Z,7.50
2018-11-10T07:24:52.467Z,7.90
2018-11-10T07:25:52.460Z,8.20
2018-11-10T07:26:52.489Z,7.80
2018-11-10T07:27:52.518Z,8.30
2018-11-10T07:28:52.552Z,11.00
2018-11-10T07:29:52.575Z,8.20
2018-11-10T07:30:52.604Z,8.60
2018-11-10T07:31:52.637Z,7.80
2018-11-10T07:32:52.661Z,8.20
2018-11-10T07:33:52.691Z,8.10
2018-11-10T07:34:52.724Z,8.00
2018-11-10T07:35:52.748Z,8.90
2018-11-10T07:36:52.778Z,10.30
2018-11-10T07:37:52.808Z,8.70
2018-11-10T07:38:52.836Z,8.30
2018-11-10T07:39:52.864Z,14.20
2018-11-10T07:40:52.894Z,10.50
2018-11-10T07:41:52.923Z,9.50
2018-11-10T07:42:52.966Z,9.60
2018-11-10T07:43:52.982Z,11.80
2018-11-10T07:44:53.012Z,8.50
2018-11-10T07:45:53.041Z,8.50
2018-11-10T07:46:53.068Z,13.80
2018-11-10T07:47:53.098Z,10.10
2018-11-10T07:48:53.133Z,9.60
2018-11-10T07:49:53.158Z,10.80
2018-11-10T07:50:53.185Z,8.60
2018-11-10T07:51:53.214Z,9.50
2018-11-10T07:52:53.245Z,8.40
2018-11-10T07:53:53.273Z,8.20
2018-11-10T07:54:53.302Z,12.90
2018-11-10T07:55:53.369Z,9.10
2018-11-10T07:56:53.360Z,8.60
2018-11-10T07:57:53.391Z,9.30
2018-11-10T07:58:53.419Z,9.50
2018-11-10T07:59:53.451Z,8.20
2018-11-10T08:00:53.480Z,8.40
2018-11-10T08:01:53.509Z,8.60
2018-11-10T08:02:53.538Z,9.00
2018-11-10T08:03:53.566Z,6.80
2018-11-10T08:04:53.598Z,8.20
2018-11-10T08:05:53.627Z,10.30
2018-11-10T08:06:53.656Z,8.10
2018-11-10T08:07:53.685Z,8.60
2018-11-10T08:08:53.715Z,18.20
2018-11-10T08:09:53.746Z,8.00
2018-11-10T08:10:53.774Z,7.80
2018-11-10T08:11:53.902Z,6.70
2018-11-10T08:12:53.836Z,7.30
2018-11-10T08:13:53.865Z,7.10
2018-11-10T08:14:53.894Z,6.70
2018-11-10T08:15:53.924Z,9.10
2018-11-10T08:16:55.758Z,7.60
2018-11-10T08:17:53.986Z,10.80
2018-11-10T08:18:54.015Z,7.90
2018-11-10T08:19:54.044Z,6.80
2018-11-10T08:20:54.074Z,6.40
2018-11-10T08:21:54.108Z,9.30
2018-11-10T08:22:54.136Z,6.60
2018-11-10T08:23:54.165Z,6.60
2018-11-10T08:24:54.244Z,7.00
2018-11-10T08:25:54.230Z,7.10
2018-11-10T08:26:54.255Z,12.90
2018-11-10T08:27:54.287Z,18.10
2018-11-10T08:28:54.317Z,20.90
2018-11-10T08:29:54.349Z,19.30
2018-11-10T08:30:54.376Z,11.90
2018-11-10T08:31:54.408Z,15.20
2018-11-10T08:32:54.444Z,12.60
2018-11-10T08:33:54.469Z,11.20
2018-11-10T08:34:54.499Z,8.20
2018-11-10T08:35:54.529Z,8.80
2018-11-10T08:36:54.559Z,7.40
2018-11-10T08:37:54.590Z,8.00
2018-11-10T08:38:54.642Z,7.30
2018-11-10T08:39:54.651Z,7.90
2018-11-10T08:40:54.680Z,9.60
2018-11-10T08:41:54.712Z,8.20
2018-11-10T08:42:54.791Z,7.60
2018-11-10T08:43:54.772Z,7.80
2018-11-10T08:44:54.803Z,8.40
2018-11-10T08:45:54.833Z,7.10
2018-11-10T08:46:54.864Z,7.40
2018-11-10T08:47:54.893Z,7.20
2018-11-10T08:48:54.925Z,7.40
2018-11-10T08:49:54.956Z,8.90
2018-11-10T08:50:54.986Z,7.90
2018-11-10T08:51:55.017Z,10.10
2018-11-10T08:52:55.196Z,9.00
2018-11-10T08:53:55.078Z,9.00
2018-11-10T08:54:55.108Z,12.50
2018-11-10T08:55:55.138Z,12.90
2018-11-10T08:56:55.169Z,10.10
2018-11-10T08:57:55.202Z,9.90
2018-11-10T08:58:55.253Z,10.20
2018-11-10T08:59:55.262Z,11.40
2018-11-10T09:00:55.292Z,10.50
2018-11-10T09:01:55.322Z,14.80
2018-11-10T09:02:55.353Z,11.40
2018-11-10T09:03:55.384Z,9.60
2018-11-10T09:04:55.414Z,14.30
2018-11-10T09:05:55.445Z,9.00
2018-11-10T09:06:55.476Z,12.90
2018-11-10T09:07:55.506Z,14.80
2018-11-10T09:08:55.537Z,9.90
2018-11-10T09:09:55.612Z,10.30
2018-11-10T09:10:55.597Z,12.20
2018-11-10T09:11:55.632Z,18.70
2018-11-10T09:12:55.659Z,9.10
2018-11-10T09:13:55.690Z,9.00
2018-11-10T09:14:55.776Z,12.80
2018-11-10T09:15:55.753Z,12.80
2018-11-10T09:16:55.783Z,16.00
2018-11-10T09:17:55.914Z,14.90
2018-11-10T09:18:55.844Z,9.70
2018-11-10T09:19:55.875Z,13.00
2018-11-10T09:20:55.905Z,13.00
2018-11-10T09:21:55.937Z,23.30
2018-11-10T09:22:55.966Z,30.50
2018-11-10T09:23:55.997Z,37.10
2018-11-10T09:24:56.029Z,21.70
2018-11-10T09:25:56.060Z,27.10
2018-11-10T09:26:56.093Z,20.00
2018-11-10T09:27:56.121Z,21.40
2018-11-10T09:28:56.152Z,16.00
2018-11-10T09:29:56.183Z,15.60
2018-11-10T09:30:56.264Z,17.60
2018-11-10T09:31:56.245Z,15.70
2018-11-10T09:32:56.276Z,15.10
2018-11-10T09:33:56.307Z,12.80
2018-11-10T09:34:56.337Z,10.00
2018-11-10T09:35:56.369Z,12.30
2018-11-10T09:36:56.401Z,9.30
2018-11-10T09:37:56.431Z,13.10
2018-11-10T09:38:56.464Z,10.40
2018-11-10T09:39:56.494Z,10.70
2018-11-10T09:40:56.529Z,8.60
2018-11-10T09:41:56.577Z,12.90
2018-11-10T09:42:56.587Z,10.50
2018-11-10T09:43:56.625Z,8.80
2018-11-10T09:44:56.649Z,8.10
2018-11-10T09:45:56.681Z,8.90
2018-11-10T09:46:56.712Z,12.00
2018-11-10T09:47:56.742Z,8.80
2018-11-10T09:48:56.782Z,8.80
2018-11-10T09:49:56.839Z,7.70
2018-11-10T09:50:56.920Z,8.80
2018-11-10T09:51:56.867Z,8.20
2018-11-10T09:52:56.903Z,7.60
2018-11-10T09:53:56.930Z,8.30
2018-11-10T09:54:56.962Z,10.60
2018-11-10T09:55:56.994Z,8.20
2018-11-10T09:56:57.026Z,6.50
2018-11-10T09:57:57.057Z,9.70
2018-11-10T09:58:57.089Z,8.40
2018-11-10T09:59:57.121Z,12.50
2018-11-10T10:00:57.187Z,6.70
2018-11-10T10:01:57.449Z,13.00
2018-11-10T10:02:57.215Z,7.10
2018-11-10T10:03:57.247Z,6.90
2018-11-10T10:04:57.279Z,7.70
2018-11-10T10:05:57.314Z,9.70
2018-11-10T10:06:57.343Z,6.90
2018-11-10T10:07:57.375Z,9.10
2018-11-10T10:08:57.412Z,6.90
2018-11-10T10:09:57.440Z,7.50
2018-11-10T10:10:57.472Z,7.40
2018-11-10T10:11:57.503Z,7.70
2018-11-10T10:12:57.535Z,6.90
2018-11-10T10:13:57.568Z,6.40
2018-11-10T10:14:57.598Z,9.40
2018-11-10T10:15:57.685Z,6.30
2018-11-10T10:16:57.664Z,6.50
2018-11-10T10:17:57.695Z,7.90
2018-11-10T10:18:57.728Z,9.30
2018-11-10T10:19:57.759Z,6.80
2018-11-10T10:20:57.792Z,7.00
2018-11-10T10:21:57.896Z,6.50
2018-11-10T10:22:57.854Z,10.10
2018-11-10T10:23:57.888Z,11.20
2018-11-10T10:24:57.919Z,7.90
2018-11-10T10:25:57.952Z,9.10
2018-11-10T10:26:57.983Z,8.00
2018-11-10T10:27:58.020Z,7.80
2018-11-10T10:28:58.059Z,9.50
2018-11-10T10:29:58.082Z,13.90
2018-11-10T10:30:58.113Z,10.70
2018-11-10T10:31:58.145Z,7.80
2018-11-10T10:32:58.179Z,8.00
2018-11-10T10:33:58.228Z,12.10
2018-11-10T10:34:58.266Z,13.00
2018-11-10T10:35:58.274Z,9.50
2018-11-10T10:36:58.307Z,7.40
2018-11-10T10:37:58.339Z,7.90
2018-11-10T10:38:58.370Z,8.20
2018-11-10T10:39:58.404Z,12.30
2018-11-10T10:40:58.436Z,9.90
2018-11-10T10:41:58.468Z,8.90
2018-11-10T10:42:58.577Z,9.10
2018-11-10T10:43:58.533Z,12.30
2018-11-10T10:44:58.565Z,7.10
2018-11-10T10:45:58.601Z,7.60
2018-11-10T10:46:58.632Z,12.70
2018-11-10T10:47:58.662Z,7.50
2018-11-10T10:48:58.835Z,8.70
2018-11-10T10:49:58.730Z,11.90
2018-11-10T10:50:58.759Z,9.40
2018-11-10T10:51:58.791Z,10.20
2018-11-10T10:52:58.827Z,8.50
2018-11-10T10:53:58.857Z,9.00
2018-11-10T10:54:58.887Z,11.40
2018-11-10T10:55:58.969Z,8.70
2018-11-10T10:56:59.036Z,14.70
2018-11-10T10:57:58.984Z,11.10
2018-11-10T10:58:59.018Z,11.30
2018-11-10T10:59:59.049Z,10.90
2018-11-10T11:00:59.082Z,11.80
2018-11-10T11:01:59.116Z,12.50
2018-11-10T11:02:59.268Z,7.90
2018-11-10T11:03:59.179Z,10.50
2018-11-10T11:04:59.211Z,10.40
2018-11-10T11:05:59.244Z,14.20
2018-11-10T11:06:59.275Z,18.40
2018-11-10T11:07:59.308Z,19.00
2018-11-10T11:08:59.459Z,18.40
2018-11-10T11:09:59.372Z,21.00
2018-11-10T11:10:59.404Z,21.80
2018-11-10T11:11:59.437Z,22.00
2018-11-10T11:12:59.471Z,22.80
2018-11-10T11:13:59.502Z,21.30
2018-11-10T11:14:59.550Z,23.00
2018-11-10T11:15:59.566Z,29.30
2018-11-10T11:16:59.598Z,26.00
2018-11-10T11:17:59.629Z,29.70
2018-11-10T11:18:59.662Z,28.30
2018-11-10T11:19:59.692Z,30.10
2018-11-10T11:20:59.725Z,31.20
2018-11-10T11:21:59.890Z,33.60
2018-11-10T11:22:59.791Z,36.90
2018-11-10T11:23:59.820Z,36.80
2018-11-10T11:24:59.852Z,37.40
2018-11-10T11:25:59.884Z,35.60
2018-11-10T11:26:59.916Z,34.20
2018-11-10T11:27:59.947Z,35.40
2018-11-10T11:29:00.013Z,40.20
2018-11-10T11:30:00.014Z,44.40
2018-11-10T11:31:00.054Z,38.50
2018-11-10T11:32:00.075Z,35.50
2018-11-10T11:33:00.108Z,41.70
2018-11-10T11:34:00.138Z,42.80
2018-11-10T11:35:00.197Z,40.30
2018-11-10T11:36:00.201Z,46.40
2018-11-10T11:37:00.234Z,40.60
2018-11-10T11:38:00.265Z,43.10
2018-11-10T11:39:00.297Z,38.90
2018-11-10T11:40:00.329Z,43.00
2018-11-10T11:41:00.414Z,38.30
2018-11-10T11:42:00.394Z,41.80
2018-11-10T11:43:00.424Z,42.10
2018-11-10T11:44:00.457Z,38.30
2018-11-10T11:45:00.490Z,34.70
2018-11-10T11:46:00.521Z,35.80
2018-11-10T11:47:00.555Z,43.10
2018-11-10T11:48:00.586Z,41.20
2018-11-10T11:49:00.620Z,40.70
2018-11-10T11:50:00.796Z,38.70
2018-11-10T11:51:00.684Z,42.50
2018-11-10T11:52:00.718Z,37.60
2018-11-10T11:53:00.751Z,36.40
2018-11-10T11:54:00.784Z,39.10
2018-11-10T11:55:00.817Z,34.50
2018-11-10T11:56:00.852Z,37.80
2018-11-10T11:57:00.882Z,35.70
2018-11-10T11:58:01.082Z,35.30
2018-11-10T11:59:00.950Z,37.00
2018-11-10T12:00:00.983Z,40.50
2018-11-10T12:01:01.015Z,40.50
2018-11-10T12:02:01.090Z,40.40
2018-11-10T12:03:01.084Z,38.40
2018-11-10T12:04:01.115Z,40.20
2018-11-10T12:05:01.148Z,36.40
2018-11-10T12:06:01.180Z,39.30
2018-11-10T12:07:01.212Z,40.30
2018-11-10T12:08:01.245Z,43.60
2018-11-10T12:09:01.279Z,35.90
2018-11-10T12:10:01.313Z,37.10
2018-11-10T12:11:01.343Z,45.40
2018-11-10T12:12:01.377Z,43.90
2018-11-10T12:13:01.411Z,38.30
2018-11-10T12:14:01.444Z,41.40
2018-11-10T12:15:01.521Z,39.30
2018-11-10T12:16:01.510Z,39.80
2018-11-10T12:17:01.616Z,40.50
2018-11-10T12:18:01.573Z,39.40
2018-11-10T12:19:01.607Z,46.20
2018-11-10T12:20:01.641Z,39.90
2018-11-10T12:21:01.750Z,35.30
2018-11-10T12:22:01.746Z,40.70
2018-11-10T12:23:01.737Z,43.50
2018-11-10T12:24:01.769Z,39.70
2018-11-10T12:25:01.803Z,40.10
2018-11-10T12:26:01.837Z,41.30
2018-11-10T12:27:01.870Z,39.60
2018-11-10T12:28:01.900Z,44.80
2018-11-10T12:29:01.932Z,38.80
2018-11-10T12:30:02.217Z,45.10
2018-11-10T12:31:01.999Z,38.50
2018-11-10T12:32:02.067Z,38.50
2018-11-10T12:33:02.064Z,36.30
2018-11-10T12:34:02.100Z,51.10
2018-11-10T12:35:02.132Z,41.30
2018-11-10T12:36:02.163Z,37.60
2018-11-10T12:37:02.195Z,35.20
2018-11-10T12:38:02.229Z,36.70
2018-11-10T12:39:02.260Z,35.90
2018-11-10T12:40:02.294Z,37.10
2018-11-10T12:41:02.326Z,40.50
2018-11-10T12:42:02.360Z,44.10
2018-11-10T12:43:02.393Z,39.20
2018-11-10T12:44:02.426Z,40.90
2018-11-10T12:45:02.466Z,46.00
2018-11-10T12:46:02.493Z,43.10
2018-11-10T12:47:02.524Z,36.50
2018-11-10T12:48:02.562Z,37.60
2018-11-10T12:49:02.699Z,34.40
2018-11-10T12:50:02.628Z,40.40
2018-11-10T12:51:02.657Z,32.30
2018-11-10T12:52:02.690Z,34.50
2018-11-10T12:53:02.726Z,34.20
2018-11-10T12:54:02.759Z,30.20
2018-11-10T12:55:02.847Z,33.40
2018-11-10T12:56:02.823Z,33.80
2018-11-10T12:57:02.857Z,35.30
2018-11-10T12:58:02.934Z,33.20
2018-11-10T12:59:02.924Z,38.60